Time;durP1;ratioP1;P1;durP2;ratioP2;P2;SDS_P1;SDS_P2;PMS_P1;PMS_P2;Temp;Humidity;BMP_temperature;BMP_pressure;BME280_temperature;BME280_humidity;BME280_pressure;Samples;Min_cycle;Max_cycle;Signal;HPM_P1;HPM_P2
2023/06/13 00:01:57;;;;;;;0.10;0.10;;;19.70;99.90;;;;;;5047219;28;20246;-80
2023/06/13 00:04:23;;;;;;;0.10;0.10;;;19.60;99.90;;;;;;5047756;28;20182;-80
2023/06/13 00:06:54;;;;;;;0.10;0.10;;;19.60;99.90;;;;;;5048161;28;20518;-79
2023/06/13 00:09:20;;;;;;;0.10;0.10;;;19.60;99.90;;;;;;5048116;28;20182;-80
2023/06/13 00:11:49;;;;;;;0.10;0.10;;;19.50;99.90;;;;;;5048946;28;20825;-80
2023/06/13 00:14:16;;;;;;;0.10;0.10;;;19.50;99.90;;;;;;5047969;28;20188;-80
2023/06/13 00:16:47;;;;;;;0.10;0.10;;;19.40;99.90;;;;;;5048350;28;20189;-80
2023/06/13 00:19:13;;;;;;;0.10;0.10;;;19.40;99.90;;;;;;5047865;28;20201;-80
2023/06/13 00:21:40;;;;;;;0.20;0.20;;;19.40;99.90;;;;;;5046811;28;20186;-80
2023/06/13 00:24:06;;;;;;;0.10;0.10;;;19.40;99.90;;;;;;5047302;28;20181;-80
2023/06/13 00:26:32;;;;;;;0.10;0.10;;;19.30;99.90;;;;;;5047269;28;20178;-80
2023/06/13 00:28:57;;;;;;;0.10;0.10;;;19.30;99.90;;;;;;5047592;28;20216;-80
2023/06/13 00:31:29;;;;;;;0.10;0.10;;;19.20;99.90;;;;;;5047361;28;20726;-80
2023/06/13 00:33:59;;;;;;;0.10;0.10;;;19.30;99.90;;;;;;5046456;28;20188;-80
2023/06/13 00:36:27;;;;;;;0.10;0.10;;;19.20;99.90;;;;;;5046869;28;20181;-80
2023/06/13 00:38:53;;;;;;;0.10;0.10;;;19.20;99.90;;;;;;5047366;28;20220;-80
2023/06/13 00:41:19;;;;;;;0.53;0.53;;;19.10;99.90;;;;;;5045734;28;20200;-80
2023/06/13 00:43:44;;;;;;;0.10;0.10;;;19.10;99.90;;;;;;5046758;28;20642;-80
2023/06/13 00:46:13;;;;;;;0.10;0.10;;;19.00;99.90;;;;;;5047189;28;20912;-80
2023/06/13 00:48:43;;;;;;;0.10;0.10;;;19.00;99.90;;;;;;5046670;28;20209;-80
2023/06/13 00:51:10;;;;;;;0.10;0.10;;;18.90;99.90;;;;;;5046749;28;20181;-80
2023/06/13 00:53:36;;;;;;;0.10;0.10;;;18.90;99.90;;;;;;5046628;28;20590;-80
2023/06/13 00:56:04;;;;;;;0.10;0.10;;;18.90;99.90;;;;;;5045976;28;20186;-79
2023/06/13 00:58:30;;;;;;;0.10;0.10;;;18.90;99.90;;;;;;5048061;28;20211;-80
2023/06/13 01:00:57;;;;;;;0.10;0.10;;;18.80;99.90;;;;;;5046772;28;20202;-80
2023/06/13 01:03:23;;;;;;;0.10;0.10;;;18.80;99.90;;;;;;5046068;28;20215;-80
2023/06/13 01:05:49;;;;;;;0.10;0.10;;;18.80;99.90;;;;;;5048258;28;20662;-80
2023/06/13 01:08:23;;;;;;;0.10;0.10;;;18.70;99.90;;;;;;5046881;28;20212;-80
2023/06/13 01:11:09;;;;;;;0.30;0.30;;;18.60;99.90;;;;;;5046568;28;20578;-80
2023/06/13 01:13:51;;;;;;;0.10;0.10;;;18.70;99.90;;;;;;5046140;28;20276;-80
2023/06/13 01:16:38;;;;;;;0.10;0.10;;;18.60;99.90;;;;;;5055362;28;20183;-80
2023/06/13 01:19:21;;;;;;;0.10;0.10;;;18.60;99.90;;;;;;5047642;28;20177;-80
2023/06/13 01:21:47;;;;;;;0.10;0.10;;;18.60;99.90;;;;;;5047403;28;20591;-80
2023/06/13 01:24:27;;;;;;;0.10;0.10;;;18.60;99.90;;;;;;5046101;28;20209;-80
2023/06/13 01:26:56;;;;;;;0.10;0.10;;;18.50;99.90;;;;;;5046408;28;20550;-80
2023/06/13 01:29:22;;;;;;;0.10;0.10;;;18.50;99.90;;;;;;5046233;28;20650;-80
2023/06/13 01:31:53;;;;;;;0.10;0.10;;;18.50;99.90;;;;;;5046649;28;20190;-80
2023/06/13 01:34:19;;;;;;;0.10;0.10;;;18.50;99.90;;;;;;5045230;28;20686;-80
2023/06/13 01:36:47;;;;;;;0.10;0.10;;;18.50;99.90;;;;;;5047097;28;20666;-80
2023/06/13 01:39:12;;;;;;;0.10;0.10;;;18.50;99.90;;;;;;5045276;28;20194;-80
2023/06/13 01:41:38;;;;;;;0.10;0.10;;;18.50;99.90;;;;;;5045822;28;20180;-80
2023/06/13 01:44:05;;;;;;;0.10;0.10;;;18.50;99.90;;;;;;5047777;28;20243;-80
2023/06/13 01:46:44;;;;;;;0.10;0.10;;;18.40;99.90;;;;;;5047632;28;20655;-80
2023/06/13 01:49:23;;;;;;;0.10;0.10;;;18.40;99.90;;;;;;5046036;28;20217;-80
2023/06/13 01:52:06;;;;;;;0.10;0.10;;;18.40;99.90;;;;;;5047001;28;20268;-80
2023/06/13 01:54:36;;;;;;;0.10;0.10;;;18.30;99.90;;;;;;5046195;28;20539;-80
2023/06/13 01:57:06;;;;;;;0.10;0.10;;;18.30;99.90;;;;;;5047602;28;20291;-80
2023/06/13 01:59:33;;;;;;;0.10;0.10;;;18.20;99.90;;;;;;5045729;28;20619;-80
2023/06/13 02:02:00;;;;;;;0.10;0.10;;;18.20;99.90;;;;;;5046500;28;20197;-80
2023/06/13 02:04:26;;;;;;;0.10;0.10;;;18.20;99.90;;;;;;5047062;28;20184;-80
2023/06/13 02:06:51;;;;;;;0.10;0.10;;;18.20;99.90;;;;;;5045836;28;20607;-80
2023/06/13 02:09:17;;;;;;;0.10;0.10;;;18.10;99.90;;;;;;5046767;28;20239;-80
2023/06/13 02:11:43;;;;;;;0.10;0.10;;;18.10;99.90;;;;;;5046348;28;20531;-80
2023/06/13 02:14:08;;;;;;;0.10;0.10;;;18.00;99.90;;;;;;5047171;28;20225;-79
2023/06/13 02:16:34;;;;;;;0.10;0.10;;;18.00;99.90;;;;;;5045644;28;20199;-80
2023/06/13 02:19:00;;;;;;;0.10;0.10;;;17.90;99.90;;;;;;5045187;28;20621;-80
2023/06/13 02:21:27;;;;;;;0.10;0.10;;;17.90;99.90;;;;;;5046344;28;20205;-80
2023/06/13 02:23:52;;;;;;;0.10;0.10;;;17.90;99.90;;;;;;5044620;28;20268;-80
2023/06/13 02:26:19;;;;;;;0.10;0.10;;;17.80;99.90;;;;;;5047050;28;20302;-80
2023/06/13 02:28:45;;;;;;;0.10;0.10;;;17.80;99.90;;;;;;5045435;28;20209;-80
2023/06/13 02:31:11;;;;;;;0.10;0.10;;;17.70;99.90;;;;;;5045262;28;20181;-79
2023/06/13 02:33:38;;;;;;;0.10;0.10;;;17.70;99.90;;;;;;5045560;28;20276;-80
2023/06/13 02:36:04;;;;;;;0.10;0.10;;;17.70;99.90;;;;;;5045473;28;20236;-80
2023/06/13 02:38:30;;;;;;;0.10;0.10;;;17.70;99.90;;;;;;5045661;28;20288;-80
2023/06/13 02:40:55;;;;;;;0.10;0.10;;;17.70;99.90;;;;;;5045015;28;20313;-80
2023/06/13 02:43:21;;;;;;;0.10;0.10;;;17.70;99.90;;;;;;5045885;28;20184;-80
2023/06/13 02:45:47;;;;;;;0.10;0.10;;;17.60;99.90;;;;;;5044851;28;20192;-80
2023/06/13 02:48:12;;;;;;;0.10;0.10;;;17.60;99.90;;;;;;5044759;28;20203;-80
2023/06/13 02:50:38;;;;;;;0.10;0.10;;;17.60;99.90;;;;;;5045426;28;20256;-80
2023/06/13 02:53:03;;;;;;;0.10;0.10;;;17.50;99.90;;;;;;5045016;28;20605;-80
2023/06/13 02:55:29;;;;;;;0.10;0.10;;;17.50;99.90;;;;;;5044479;28;20182;-80
2023/06/13 02:57:55;;;;;;;0.10;0.10;;;17.50;99.90;;;;;;5046387;28;20271;-80
2023/06/13 03:00:21;;;;;;;0.10;0.10;;;17.50;99.90;;;;;;5045256;28;20202;-80
2023/06/13 03:02:47;;;;;;;0.10;0.10;;;17.40;99.90;;;;;;5045052;28;20268;-80
2023/06/13 03:05:16;;;;;;;0.10;0.10;;;17.40;99.90;;;;;;5044911;28;20205;-80
2023/06/13 03:07:46;;;;;;;0.10;0.10;;;17.40;99.90;;;;;;5044793;28;20292;-80
2023/06/13 03:10:13;;;;;;;0.10;0.10;;;17.40;99.90;;;;;;5045949;28;20186;-80
2023/06/13 03:12:39;;;;;;;0.10;0.10;;;17.30;99.90;;;;;;5046319;28;20189;-80
2023/06/13 03:15:06;;;;;;;0.10;0.10;;;17.30;99.90;;;;;;5044449;28;20201;-79
2023/06/13 03:17:32;;;;;;;0.10;0.10;;;17.30;99.90;;;;;;5043915;28;20611;-80
2023/06/13 03:19:58;;;;;;;0.10;0.10;;;17.20;99.90;;;;;;5044597;28;20255;-79
2023/06/13 03:22:23;;;;;;;0.20;0.20;;;17.30;99.90;;;;;;5044797;28;20284;-80
2023/06/13 03:24:50;;;;;;;8.83;8.30;;;17.20;99.90;;;;;;5046539;28;20185;-80
2023/06/13 03:27:15;;;;;;;0.10;0.10;;;17.20;99.90;;;;;;5044995;28;20202;-80
2023/06/13 03:29:42;;;;;;;0.10;0.10;;;17.20;99.90;;;;;;5044552;28;20564;-80
2023/06/13 03:32:09;;;;;;;0.10;0.10;;;17.20;99.90;;;;;;5044487;28;20190;-80
2023/06/13 03:34:38;;;;;;;0.10;0.10;;;17.20;99.90;;;;;;5044010;28;20739;-80
2023/06/13 03:37:07;;;;;;;0.10;0.10;;;17.40;99.90;;;;;;5045957;28;20632;-80
2023/06/13 03:39:33;;;;;;;0.10;0.10;;;17.90;99.90;;;;;;5046387;28;20683;-80
2023/06/13 03:41:59;;;;;;;0.10;0.10;;;18.10;99.90;;;;;;5044682;28;20262;-80
2023/06/13 03:44:26;;;;;;;0.10;0.10;;;18.50;99.90;;;;;;5046480;28;20178;-80
2023/06/13 03:46:52;;;;;;;0.10;0.10;;;18.90;99.90;;;;;;5045959;28;20193;-80
2023/06/13 03:49:20;;;;;;;0.10;0.10;;;19.20;99.90;;;;;;5044487;28;20186;-80
2023/06/13 03:51:46;;;;;;;0.10;0.10;;;19.60;99.90;;;;;;5043818;28;20182;-80
2023/06/13 03:54:11;;;;;;;0.10;0.10;;;20.00;99.90;;;;;;5044555;28;20284;-80
2023/06/13 03:56:37;;;;;;;0.10;0.10;;;19.90;99.90;;;;;;5046096;28;20220;-80
2023/06/13 03:59:03;;;;;;;0.10;0.10;;;20.30;99.90;;;;;;5048894;28;20259;-80
2023/06/13 04:01:28;;;;;;;0.10;0.10;;;20.50;99.90;;;;;;5048093;28;20205;-80
2023/06/13 04:03:54;;;;;;;0.10;0.10;;;20.80;99.90;;;;;;5048434;28;20240;-80
2023/06/13 04:06:20;;;;;;;0.10;0.10;;;21.10;99.90;;;;;;5047838;28;20670;-80
2023/06/13 04:08:46;;;;;;;0.10;0.10;;;21.40;99.90;;;;;;5049110;28;20206;-81
2023/06/13 04:11:11;;;;;;;0.10;0.10;;;21.80;99.90;;;;;;5048096;28;20192;-80
2023/06/13 04:13:37;;;;;;;0.10;0.10;;;21.70;99.90;;;;;;5049086;28;20255;-80
2023/06/13 04:16:02;;;;;;;0.10;0.10;;;21.60;99.90;;;;;;5049246;28;20272;-80
2023/06/13 04:18:29;;;;;;;0.10;0.10;;;21.50;99.90;;;;;;5048776;28;20213;-80
2023/06/13 04:20:55;;;;;;;0.10;0.10;;;21.60;99.90;;;;;;5048750;28;20621;-80
2023/06/13 04:23:21;;;;;;;0.10;0.10;;;21.50;99.90;;;;;;5047957;28;20613;-80
2023/06/13 04:25:47;;;;;;;0.10;0.10;;;21.20;99.90;;;;;;5049516;28;20182;-80
2023/06/13 04:28:13;;;;;;;0.10;0.10;;;20.70;99.90;;;;;;5050364;28;20689;-80
2023/06/13 04:30:40;;;;;;;0.10;0.10;;;20.30;99.90;;;;;;5047943;28;20186;-80
2023/06/13 04:33:13;;;;;;;0.10;0.10;;;19.80;99.90;;;;;;5057855;28;20195;-80
2023/06/13 04:35:44;;;;;;;0.10;0.10;;;19.70;99.90;;;;;;5048887;28;20191;-80
2023/06/13 04:38:14;;;;;;;0.10;0.10;;;19.30;99.90;;;;;;5050485;28;20205;-80
2023/06/13 04:40:40;;;;;;;0.10;0.10;;;19.30;99.90;;;;;;5050695;28;20289;-80
2023/06/13 04:43:06;;;;;;;0.10;0.10;;;19.20;99.90;;;;;;5049821;28;20180;-80
2023/06/13 04:45:32;;;;;;;0.10;0.10;;;19.20;99.90;;;;;;5051036;28;20197;-80
2023/06/13 04:48:01;;;;;;;0.10;0.10;;;19.10;99.90;;;;;;5048993;28;20202;-80
2023/06/13 04:50:27;;;;;;;0.10;0.10;;;19.00;99.90;;;;;;5048068;28;20198;-80
2023/06/13 04:52:53;;;;;;;0.10;0.10;;;19.00;99.90;;;;;;5049287;28;20297;-81
2023/06/13 04:55:21;;;;;;;0.10;0.10;;;18.90;99.90;;;;;;5049063;28;20788;-81
2023/06/13 04:57:46;;;;;;;0.10;0.10;;;18.80;99.90;;;;;;5048387;28;20205;-80
2023/06/13 05:00:12;;;;;;;0.10;0.10;;;18.80;99.90;;;;;;5048609;28;20709;-81
2023/06/13 05:02:42;;;;;;;0.10;0.10;;;18.90;99.90;;;;;;5048200;28;20186;-80
2023/06/13 05:05:08;;;;;;;0.10;0.10;;;18.80;99.90;;;;;;5047835;28;20215;-80
2023/06/13 05:07:39;;;;;;;0.10;0.10;;;18.60;99.90;;;;;;5048009;28;20257;-81
2023/06/13 05:10:05;;;;;;;0.10;0.10;;;18.80;99.90;;;;;;5048598;28;20174;-80
2023/06/13 05:12:30;;;;;;;0.10;0.10;;;18.80;99.90;;;;;;5048031;28;20188;-80
2023/06/13 05:14:56;;;;;;;0.10;0.10;;;19.00;99.90;;;;;;5049684;28;20781;-80
2023/06/13 05:17:22;;;;;;;0.10;0.10;;;18.80;99.90;;;;;;5048445;28;20197;-80
2023/06/13 05:19:47;;;;;;;0.10;0.10;;;18.80;99.90;;;;;;5050121;28;20228;-80
2023/06/13 05:22:13;;;;;;;1.67;1.60;;;19.00;99.90;;;;;;5049211;28;20196;-80
2023/06/13 05:24:38;;;;;;;0.10;0.10;;;19.00;99.90;;;;;;5048614;28;20174;-80
2023/06/13 05:27:04;;;;;;;0.10;0.10;;;18.90;99.90;;;;;;5047374;28;20194;-80
2023/06/13 05:29:30;;;;;;;0.10;0.10;;;18.90;99.90;;;;;;5048070;28;20186;-80
2023/06/13 05:31:57;;;;;;;0.10;0.10;;;18.90;99.90;;;;;;5047623;28;20191;-81
2023/06/13 05:34:23;;;;;;;0.10;0.10;;;19.00;99.90;;;;;;5047873;28;20197;-80
2023/06/13 05:36:48;;;;;;;0.10;0.10;;;19.10;99.90;;;;;;5048181;28;20189;-80
2023/06/13 05:39:15;;;;;;;0.10;0.10;;;19.30;99.90;;;;;;5047427;28;20184;-80
2023/06/13 05:41:40;;;;;;;0.10;0.10;;;19.40;99.90;;;;;;5048679;28;20190;-80
2023/06/13 05:44:06;;;;;;;0.10;0.10;;;19.50;99.90;;;;;;5047989;28;20185;-80
2023/06/13 05:46:31;;;;;;;0.10;0.10;;;19.40;99.90;;;;;;5047402;28;20182;-81
2023/06/13 05:48:58;;;;;;;0.10;0.10;;;19.40;99.90;;;;;;5049475;28;20205;-80
2023/06/13 05:51:23;;;;;;;0.10;0.10;;;19.50;99.90;;;;;;5048907;28;20182;-80
2023/06/13 05:53:50;;;;;;;0.10;0.10;;;19.50;99.90;;;;;;5048484;28;20204;-80
2023/06/13 05:56:16;;;;;;;0.10;0.10;;;19.60;99.90;;;;;;5048096;28;20211;-80
2023/06/13 05:58:43;;;;;;;0.10;0.10;;;19.60;99.90;;;;;;5047783;28;20205;-81
2023/06/13 06:01:10;;;;;;;0.00;0.00;;;19.70;99.90;;;;;;5047239;28;20208;-81
2023/06/13 06:03:35;;;;;;;0.10;0.10;;;19.60;99.90;;;;;;5049094;28;20269;-80
2023/06/13 06:06:01;;;;;;;0.10;0.10;;;19.60;99.90;;;;;;5047475;28;20231;-81
2023/06/13 06:08:27;;;;;;;0.10;0.10;;;20.00;99.90;;;;;;5046901;28;20204;-81
2023/06/13 06:10:53;;;;;;;0.10;0.10;;;19.90;99.90;;;;;;5048311;28;20182;-81
2023/06/13 06:13:18;;;;;;;0.20;0.20;;;20.00;99.90;;;;;;5047467;28;20255;-80
2023/06/13 06:15:44;;;;;;;0.10;0.10;;;20.20;99.90;;;;;;5046937;28;20185;-80
2023/06/13 06:18:09;;;;;;;0.10;0.10;;;20.30;99.90;;;;;;5046899;28;20227;-80
2023/06/13 06:20:35;;;;;;;0.20;0.20;;;20.10;99.90;;;;;;5047549;28;20205;-80
2023/06/13 06:23:00;;;;;;;0.10;0.10;;;20.00;99.90;;;;;;5046718;28;20197;-81
2023/06/13 06:25:26;;;;;;;0.10;0.10;;;20.40;99.90;;;;;;5047935;28;20531;-80
2023/06/13 06:27:52;;;;;;;0.10;0.10;;;20.80;99.90;;;;;;5047313;28;20233;-81
2023/06/13 06:30:17;;;;;;;0.73;0.73;;;20.80;99.90;;;;;;5046877;28;20211;-81
2023/06/13 06:32:43;;;;;;;0.10;0.10;;;20.50;99.90;;;;;;5048645;28;20190;-80
2023/06/13 06:35:13;;;;;;;0.10;0.10;;;20.50;99.90;;;;;;5048835;28;20567;-80
2023/06/13 06:37:39;;;;;;;0.10;0.10;;;20.50;99.90;;;;;;5056357;28;20286;-80
2023/06/13 06:40:05;;;;;;;0.10;0.10;;;20.30;99.90;;;;;;5047485;28;20289;-80
2023/06/13 06:42:30;;;;;;;0.50;0.50;;;20.60;99.90;;;;;;5049142;28;20241;-80
2023/06/13 06:44:56;;;;;;;0.10;0.10;;;20.80;99.90;;;;;;5049059;28;20208;-80
2023/06/13 06:47:21;;;;;;;0.10;0.10;;;20.60;99.90;;;;;;5049136;28;20890;-80
2023/06/13 06:49:47;;;;;;;0.20;0.20;;;20.80;99.90;;;;;;5047388;28;20226;-80
2023/06/13 06:52:12;;;;;;;0.10;0.10;;;21.00;99.90;;;;;;5048411;28;20241;-80
2023/06/13 06:54:38;;;;;;;0.10;0.10;;;21.30;99.90;;;;;;5047527;28;20196;-81
2023/06/13 06:57:04;;;;;;;0.10;0.10;;;21.40;99.90;;;;;;5046520;28;20241;-80
2023/06/13 06:59:30;;;;;;;0.10;0.10;;;21.50;99.90;;;;;;5046155;28;20638;-80
2023/06/13 07:01:56;;;;;;;0.10;0.10;;;21.70;99.90;;;;;;5046369;28;20272;-80
2023/06/13 07:04:25;;;;;;;0.10;0.10;;;21.80;99.90;;;;;;5047079;28;20173;-80
2023/06/13 07:06:51;;;;;;;0.10;0.10;;;22.10;99.90;;;;;;5047933;28;20212;-81
2023/06/13 07:09:16;;;;;;;0.10;0.10;;;21.80;99.90;;;;;;5046590;28;20448;-80
2023/06/13 07:11:42;;;;;;;0.10;0.10;;;21.50;99.90;;;;;;5047799;28;20260;-80
2023/06/13 07:14:07;;;;;;;0.10;0.10;;;21.70;99.90;;;;;;5047410;28;20591;-81
2023/06/13 07:16:33;;;;;;;0.10;0.10;;;21.80;99.90;;;;;;5046672;28;20178;-80
2023/06/13 07:18:58;;;;;;;0.10;0.10;;;21.70;99.90;;;;;;5046176;28;20741;-80
2023/06/13 07:21:24;;;;;;;0.10;0.10;;;21.30;99.90;;;;;;5047127;28;20212;-79
2023/06/13 07:23:50;;;;;;;0.10;0.10;;;21.90;99.90;;;;;;5046308;28;20189;-80
2023/06/13 07:26:15;;;;;;;0.10;0.10;;;22.20;99.90;;;;;;5047385;28;20174;-80
2023/06/13 07:28:41;;;;;;;0.10;0.10;;;22.10;99.90;;;;;;5036892;28;20212;-80
2023/06/13 07:31:07;;;;;;;0.10;0.10;;;21.70;99.90;;;;;;5045958;28;20219;-80
2023/06/13 07:33:32;;;;;;;0.10;0.10;;;21.60;99.90;;;;;;5050276;28;20272;-80
2023/06/13 07:35:58;;;;;;;0.10;0.10;;;21.90;99.90;;;;;;5050477;28;20273;-80
2023/06/13 07:38:25;;;;;;;0.10;0.10;;;22.20;99.90;;;;;;5050140;28;20206;-80
2023/06/13 07:40:50;;;;;;;0.10;0.10;;;22.50;99.90;;;;;;5050163;28;20194;-80
2023/06/13 07:43:16;;;;;;;0.10;0.10;;;22.10;99.90;;;;;;5049891;28;21025;-80
2023/06/13 07:45:41;;;;;;;0.10;0.10;;;22.10;99.90;;;;;;5050505;28;20970;-80
2023/06/13 07:48:07;;;;;;;0.10;0.10;;;21.70;99.90;;;;;;5050162;28;20208;-80
2023/06/13 07:50:34;;;;;;;0.10;0.10;;;21.50;99.90;;;;;;5050618;28;20269;-80
2023/06/13 07:52:59;;;;;;;0.10;0.10;;;21.90;99.90;;;;;;5059470;28;20186;-80
2023/06/13 07:55:26;;;;;;;0.10;0.10;;;22.00;99.90;;;;;;5050605;28;20651;-80
2023/06/13 07:57:51;;;;;;;0.10;0.10;;;22.00;99.90;;;;;;5051944;28;20201;-80
2023/06/13 08:00:17;;;;;;;0.10;0.10;;;22.40;99.90;;;;;;5050192;28;20256;-80
2023/06/13 08:02:46;;;;;;;0.10;0.10;;;22.80;99.90;;;;;;5052067;28;21123;-80
2023/06/13 08:05:14;;;;;;;0.10;0.10;;;22.30;99.90;;;;;;5050966;28;20221;-80
2023/06/13 08:07:40;;;;;;;0.10;0.10;;;22.30;99.90;;;;;;5058410;28;20232;-80
2023/06/13 08:10:06;;;;;;;0.10;0.10;;;22.80;99.90;;;;;;5051532;28;20181;-80
2023/06/13 08:12:32;;;;;;;0.10;0.10;;;22.90;99.90;;;;;;5050328;28;20341;-80
2023/06/13 08:14:57;;;;;;;0.10;0.10;;;22.50;99.90;;;;;;5050884;28;20197;-80
2023/06/13 08:17:24;;;;;;;0.10;0.10;;;22.50;99.90;;;;;;5050279;28;20236;-80
2023/06/13 08:19:50;;;;;;;0.50;0.50;;;22.50;99.90;;;;;;5049618;28;20209;-80
2023/06/13 08:22:17;;;;;;;0.27;0.27;;;22.40;99.90;;;;;;5049439;28;20177;-81
2023/06/13 08:24:43;;;;;;;0.10;0.10;;;22.50;99.90;;;;;;5050081;28;20209;-80
2023/06/13 08:27:10;;;;;;;0.10;0.10;;;22.40;99.90;;;;;;5049169;28;20225;-80
2023/06/13 08:29:35;;;;;;;0.10;0.10;;;22.50;99.90;;;;;;5051445;28;20287;-80
2023/06/13 08:32:01;;;;;;;0.10;0.10;;;22.00;99.90;;;;;;5049197;28;21089;-80
2023/06/13 08:34:27;;;;;;;0.10;0.10;;;22.80;99.90;;;;;;5049875;28;20189;-80
2023/06/13 08:36:52;;;;;;;0.10;0.10;;;23.20;99.90;;;;;;5049307;28;20678;-80
2023/06/13 08:39:19;;;;;;;0.10;0.10;;;23.10;99.90;;;;;;5050719;28;20611;-80
2023/06/13 08:41:45;;;;;;;0.10;0.10;;;23.20;99.90;;;;;;5050640;28;20180;-80
2023/06/13 08:44:11;;;;;;;0.10;0.10;;;23.20;99.90;;;;;;5047647;28;20193;-80
2023/06/13 08:46:36;;;;;;;0.10;0.10;;;23.50;99.90;;;;;;5049150;28;20211;-80
2023/06/13 08:49:03;;;;;;;0.10;0.10;;;23.40;99.90;;;;;;5049128;28;20259;-80
2023/06/13 08:51:30;;;;;;;0.43;0.43;;;23.60;99.90;;;;;;5050985;28;20190;-80
2023/06/13 08:54:00;;;;;;;0.10;0.10;;;23.90;99.90;;;;;;5050938;28;20185;-80
2023/06/13 08:56:27;;;;;;;0.10;0.10;;;23.50;99.90;;;;;;5049159;28;20182;-80
2023/06/13 08:59:17;;;;;;;0.10;0.10;;;22.70;99.90;;;;;;5050944;28;20940;-80
2023/06/13 09:01:44;;;;;;;0.10;0.10;;;23.20;99.90;;;;;;5048477;28;20577;-80
2023/06/13 09:04:11;;;;;;;0.10;0.10;;;23.30;99.90;;;;;;5050938;28;20181;-80
2023/06/13 09:06:38;;;;;;;0.10;0.10;;;23.30;99.90;;;;;;5050023;28;20205;-80
2023/06/13 09:09:06;;;;;;;0.10;0.10;;;23.80;99.90;;;;;;5049952;28;20674;-80
2023/06/13 09:11:35;;;;;;;0.77;0.77;;;23.60;99.90;;;;;;5050784;28;20174;-81
2023/06/13 09:14:03;;;;;;;0.10;0.10;;;23.50;99.90;;;;;;5049054;28;20190;-81
2023/06/13 09:16:30;;;;;;;0.10;0.10;;;23.90;99.90;;;;;;5049483;28;20845;-80
2023/06/13 09:18:56;;;;;;;0.10;0.10;;;23.50;99.90;;;;;;5050346;28;20205;-81
2023/06/13 09:21:21;;;;;;;0.10;0.10;;;23.50;99.90;;;;;;5048853;28;20206;-81
2023/06/13 09:23:48;;;;;;;0.10;0.10;;;24.10;99.90;;;;;;5053200;28;20190;-80
2023/06/13 09:26:15;;;;;;;0.10;0.10;;;23.90;99.90;;;;;;5051385;28;20650;-80
2023/06/13 09:28:42;;;;;;;0.10;0.10;;;24.30;99.90;;;;;;5049127;28;20197;-80
2023/06/13 09:31:08;;;;;;;0.10;0.10;;;24.90;99.90;;;;;;5049249;28;20628;-81
2023/06/13 09:33:34;;;;;;;0.10;0.10;;;24.90;99.90;;;;;;5048981;28;20217;-80
2023/06/13 09:36:00;;;;;;;0.10;0.10;;;24.70;99.90;;;;;;5049589;28;20189;-80
2023/06/13 09:38:26;;;;;;;0.10;0.10;;;24.50;99.90;;;;;;5049198;28;20209;-80
2023/06/13 09:40:54;;;;;;;0.10;0.10;;;24.30;99.90;;;;;;5047537;28;20228;-80
2023/06/13 09:43:20;;;;;;;0.10;0.10;;;24.30;99.90;;;;;;5048060;28;20187;-80
2023/06/13 09:45:50;;;;;;;0.10;0.10;;;24.30;99.90;;;;;;5048522;28;20205;-80
2023/06/13 09:48:18;;;;;;;0.17;0.17;;;24.50;99.90;;;;;;5049244;28;20246;-81
2023/06/13 09:50:43;;;;;;;0.23;0.23;;;24.40;99.90;;;;;;5049762;28;20182;-80
2023/06/13 09:53:09;;;;;;;0.10;0.10;;;23.90;99.90;;;;;;5056648;28;20247;-80
2023/06/13 09:55:36;;;;;;;0.10;0.10;;;24.20;99.90;;;;;;5049635;28;20190;-80
2023/06/13 09:58:02;;;;;;;0.10;0.10;;;24.20;99.90;;;;;;5049996;28;20213;-80
2023/06/13 10:00:29;;;;;;;0.10;0.10;;;24.40;99.90;;;;;;5048467;28;20347;-80
2023/06/13 10:02:55;;;;;;;0.30;0.30;;;24.90;99.90;;;;;;5047546;28;20182;-81
2023/06/13 10:05:21;;;;;;;0.10;0.10;;;24.50;99.90;;;;;;5049936;28;20194;-81
2023/06/13 10:07:47;;;;;;;0.10;0.10;;;24.90;99.90;;;;;;5047572;28;20198;-81
2023/06/13 10:10:12;;;;;;;0.20;0.20;;;24.60;99.90;;;;;;5051173;28;20242;-80
2023/06/13 10:12:44;;;;;;;0.10;0.10;;;25.30;99.90;;;;;;5048526;28;20179;-80
2023/06/13 10:15:12;;;;;;;0.10;0.10;;;25.50;99.90;;;;;;5049433;28;20915;-80
2023/06/13 10:17:42;;;;;;;0.10;0.10;;;25.90;99.90;;;;;;5048814;28;20208;-80
2023/06/13 10:20:11;;;;;;;0.60;0.60;;;24.80;99.90;;;;;;5049990;28;20218;-80
2023/06/13 10:22:40;;;;;;;0.10;0.10;;;24.40;99.90;;;;;;5049267;28;20185;-80
2023/06/13 10:25:08;;;;;;;0.10;0.10;;;24.50;99.90;;;;;;5048514;28;20184;-80
2023/06/13 10:27:42;;;;;;;0.10;0.10;;;24.90;99.90;;;;;;5048215;28;20648;-80
2023/06/13 10:30:10;;;;;;;0.10;0.10;;;25.00;99.90;;;;;;5049755;28;20240;-81
2023/06/13 10:33:00;;;;;;;0.10;0.10;;;25.00;99.90;;;;;;5047869;28;20189;-80
2023/06/13 10:35:53;;;;;;;0.10;0.10;;;25.10;99.90;;;;;;5048176;28;20181;-81
2023/06/13 10:39:03;;;;;;;0.10;0.10;;;24.90;99.90;;;;;;5048324;28;20198;-80
2023/06/13 10:41:47;;;;;;;0.10;0.10;;;24.70;99.90;;;;;;5031310;28;20232;-80
2023/06/13 10:44:38;;;;;;;0.10;0.10;;;25.00;99.90;;;;;;5049956;28;20189;-80
2023/06/13 10:47:07;;;;;;;0.10;0.10;;;24.70;99.90;;;;;;5049505;28;20658;-81
2023/06/13 10:49:37;;;;;;;0.10;0.10;;;25.30;99.90;;;;;;5048487;28;20201;-80
2023/06/13 10:52:03;;;;;;;0.10;0.10;;;25.50;99.90;;;;;;5050041;28;20178;-80
2023/06/13 10:54:29;;;;;;;0.10;0.10;;;25.40;99.90;;;;;;5047576;28;20506;-80
2023/06/13 10:57:00;;;;;;;0.10;0.10;;;25.40;99.90;;;;;;5049204;28;20181;-80
2023/06/13 10:59:33;;;;;;;0.10;0.10;;;25.50;99.90;;;;;;5048902;28;20174;-80
2023/06/13 11:01:59;;;;;;;0.10;0.10;;;25.50;99.90;;;;;;5046726;28;20191;-80
2023/06/13 11:04:27;;;;;;;0.10;0.10;;;24.90;99.90;;;;;;5047378;28;20181;-80
2023/06/13 11:07:25;;;;;;;0.10;0.10;;;25.00;99.90;;;;;;5048217;28;20269;-80
2023/06/13 11:10:21;;;;;;;0.10;0.10;;;25.50;99.90;;;;;;5053497;28;20568;-80
2023/06/13 11:12:46;;;;;;;0.50;0.50;;;25.30;99.90;;;;;;5050109;28;20209;-80
2023/06/13 11:15:28;;;;;;;0.20;0.20;;;25.60;99.90;;;;;;5052031;28;20189;-80
2023/06/13 11:18:09;;;;;;;0.10;0.10;;;25.50;99.90;;;;;;5051931;28;20209;-81
2023/06/13 11:20:53;;;;;;;0.10;0.10;;;25.70;99.90;;;;;;5051491;28;20670;-80
2023/06/13 11:23:23;;;;;;;0.10;0.10;;;26.10;99.90;;;;;;5054009;28;20547;-81
2023/06/13 11:25:50;;;;;;;0.10;0.10;;;26.10;99.90;;;;;;5053642;28;20174;-81
2023/06/13 11:28:17;;;;;;;0.10;0.10;;;26.60;99.90;;;;;;5052696;28;20198;-81
2023/06/13 11:30:50;;;;;;;0.10;0.10;;;26.30;99.90;;;;;;5053387;28;20189;-80
2023/06/13 11:33:17;;;;;;;0.10;0.10;;;25.70;99.90;;;;;;5052962;28;20202;-81
2023/06/13 11:35:49;;;;;;;0.10;0.10;;;25.80;99.90;;;;;;5052010;28;20196;-81
2023/06/13 11:38:21;;;;;;;0.10;0.10;;;25.50;99.90;;;;;;5056596;28;20218;-80
2023/06/13 11:40:58;;;;;;;0.10;0.10;;;25.40;99.90;;;;;;5052993;28;20205;-81
2023/06/13 11:43:25;;;;;;;0.10;0.10;;;25.70;99.90;;;;;;5053131;28;20196;-80
2023/06/13 11:46:00;;;;;;;0.10;0.10;;;25.40;99.90;;;;;;5053224;28;20210;-80
2023/06/13 11:48:26;;;;;;;0.25;0.25;;;25.50;99.90;;;;;;5053324;28;20245;-80
2023/06/13 11:50:51;;;;;;;0.10;0.10;;;25.50;99.90;;;;;;5052023;28;20200;-81
2023/06/13 11:53:18;;;;;;;0.10;0.10;;;25.60;99.90;;;;;;5051760;28;20630;-80
2023/06/13 11:55:44;;;;;;;1.50;1.45;;;25.40;99.90;;;;;;5053483;28;20188;-80
2023/06/13 11:58:10;;;;;;;0.10;0.10;;;25.70;99.90;;;;;;5053125;28;20202;-80
2023/06/13 12:00:56;;;;;;;0.10;0.10;;;26.10;99.90;;;;;;5051392;28;20213;-80
2023/06/13 12:03:23;;;;;;;0.20;0.20;;;25.80;99.90;;;;;;5053308;28;20186;-80
2023/06/13 12:05:50;;;;;;;0.10;0.10;;;25.70;99.90;;;;;;5051651;28;20198;-80
2023/06/13 12:08:16;;;;;;;0.10;0.10;;;26.00;99.90;;;;;;5053311;28;20202;-80
2023/06/13 12:10:46;;;;;;;0.10;0.10;;;25.90;99.90;;;;;;5051228;28;20539;-80
2023/06/13 12:13:15;;;;;;;0.10;0.10;;;26.40;99.90;;;;;;5051212;28;20190;-80
2023/06/13 12:15:40;;;;;;;0.10;0.10;;;26.40;99.90;;;;;;5059822;28;20213;-81
2023/06/13 12:18:06;;;;;;;0.10;0.10;;;26.00;99.90;;;;;;5052647;28;20645;-80
2023/06/13 12:20:36;;;;;;;0.10;0.10;;;25.70;99.90;;;;;;5051422;28;20280;-80
2023/06/13 12:23:01;;;;;;;0.10;0.10;;;25.90;99.90;;;;;;5051042;28;21178;-80
2023/06/13 12:25:30;;;;;;;0.10;0.10;;;26.50;99.90;;;;;;5051409;28;20186;-80
2023/06/13 12:27:56;;;;;;;0.10;0.10;;;26.60;99.90;;;;;;5050920;28;20206;-80
2023/06/13 12:30:22;;;;;;;0.10;0.10;;;26.70;99.90;;;;;;5050809;28;20332;-80
2023/06/13 12:32:50;;;;;;;0.10;0.10;;;26.30;99.90;;;;;;5051322;28;20212;-81
2023/06/13 12:35:20;;;;;;;0.10;0.10;;;26.10;99.90;;;;;;5052733;28;20182;-80
2023/06/13 12:37:55;;;;;;;0.10;0.10;;;25.90;99.90;;;;;;5052121;28;20201;-80
2023/06/13 12:40:29;;;;;;;0.10;0.10;;;25.60;99.90;;;;;;5059683;28;20214;-80
2023/06/13 12:42:56;;;;;;;0.10;0.10;;;25.80;99.90;;;;;;5050969;28;20272;-81
2023/06/13 12:45:22;;;;;;;0.52;0.52;;;25.60;99.90;;;;;;5052168;28;20192;-81
2023/06/13 12:47:47;;;;;;;0.10;0.10;;;25.60;99.90;;;;;;5051274;28;20206;-80
2023/06/13 12:50:13;;;;;;;0.10;0.10;;;26.10;99.90;;;;;;5051811;28;20899;-80
2023/06/13 12:52:39;;;;;;;0.10;0.10;;;26.20;99.90;;;;;;5059741;28;20197;-80